sensor_id;sensor_type;location;lat;lon;timestamp;P1;durP1;ratioP1;P2;durP2;ratioP2
21192;SDS011;10754;51.106;7.164;2023-02-12T00:00:20;24.23;;;21.43;;
21192;SDS011;10754;51.106;7.164;2023-02-12T00:02:46;25.90;;;23.20;;
21192;SDS011;10754;51.106;7.164;2023-02-12T00:05:11;25.27;;;21.30;;
21192;SDS011;10754;51.106;7.164;2023-02-12T00:07:37;26.17;;;22.70;;
21192;SDS011;10754;51.106;7.164;2023-02-12T00:10:03;27.50;;;23.87;;
21192;SDS011;10754;51.106;7.164;2023-02-12T00:12:29;28.80;;;23.40;;
21192;SDS011;10754;51.106;7.164;2023-02-12T00:14:54;26.27;;;21.60;;
21192;SDS011;10754;51.106;7.164;2023-02-12T00:17:20;24.20;;;21.63;;
21192;SDS011;10754;51.106;7.164;2023-02-12T00:19:46;26.83;;;23.30;;
21192;SDS011;10754;51.106;7.164;2023-02-12T00:22:12;27.77;;;24.70;;
21192;SDS011;10754;51.106;7.164;2023-02-12T00:24:37;30.87;;;26.27;;
21192;SDS011;10754;51.106;7.164;2023-02-12T00:27:03;25.23;;;21.77;;
21192;SDS011;10754;51.106;7.164;2023-02-12T00:29:28;23.00;;;20.47;;
21192;SDS011;10754;51.106;7.164;2023-02-12T00:31:54;23.10;;;19.93;;
21192;SDS011;10754;51.106;7.164;2023-02-12T00:34:19;22.03;;;19.57;;
21192;SDS011;10754;51.106;7.164;2023-02-12T00:36:45;24.37;;;20.47;;
21192;SDS011;10754;51.106;7.164;2023-02-12T00:39:10;22.37;;;19.77;;
21192;SDS011;10754;51.106;7.164;2023-02-12T00:41:36;27.43;;;23.53;;
21192;SDS011;10754;51.106;7.164;2023-02-12T00:44:01;27.17;;;22.93;;
21192;SDS011;10754;51.106;7.164;2023-02-12T00:46:27;22.77;;;18.87;;
21192;SDS011;10754;51.106;7.164;2023-02-12T00:48:53;21.87;;;19.53;;
21192;SDS011;10754;51.106;7.164;2023-02-12T00:51:18;23.30;;;18.80;;
21192;SDS011;10754;51.106;7.164;2023-02-12T00:53:44;22.30;;;19.90;;
21192;SDS011;10754;51.106;7.164;2023-02-12T00:56:09;22.77;;;20.17;;
21192;SDS011;10754;51.106;7.164;2023-02-12T00:58:35;24.50;;;21.77;;
21192;SDS011;10754;51.106;7.164;2023-02-12T01:01:00;27.00;;;21.77;;
21192;SDS011;10754;51.106;7.164;2023-02-12T01:03:26;27.97;;;22.27;;
21192;SDS011;10754;51.106;7.164;2023-02-12T01:05:52;25.27;;;21.87;;
21192;SDS011;10754;51.106;7.164;2023-02-12T01:08:17;24.93;;;22.17;;
21192;SDS011;10754;51.106;7.164;2023-02-12T01:10:43;25.03;;;22.13;;
21192;SDS011;10754;51.106;7.164;2023-02-12T01:13:13;22.67;;;19.93;;
21192;SDS011;10754;51.106;7.164;2023-02-12T01:15:39;24.80;;;20.97;;
21192;SDS011;10754;51.106;7.164;2023-02-12T01:18:06;26.53;;;22.03;;
21192;SDS011;10754;51.106;7.164;2023-02-12T01:20:31;28.17;;;22.80;;
21192;SDS011;10754;51.106;7.164;2023-02-12T01:22:57;25.83;;;22.10;;
21192;SDS011;10754;51.106;7.164;2023-02-12T01:25:23;22.97;;;20.10;;
21192;SDS011;10754;51.106;7.164;2023-02-12T01:28:01;21.17;;;18.47;;
21192;SDS011;10754;51.106;7.164;2023-02-12T01:30:32;21.07;;;18.57;;
21192;SDS011;10754;51.106;7.164;2023-02-12T01:33:00;20.73;;;18.50;;
21192;SDS011;10754;51.106;7.164;2023-02-12T01:35:26;22.80;;;19.07;;
21192;SDS011;10754;51.106;7.164;2023-02-12T01:37:52;23.37;;;18.80;;
21192;SDS011;10754;51.106;7.164;2023-02-12T01:40:20;26.07;;;20.97;;
21192;SDS011;10754;51.106;7.164;2023-02-12T01:42:46;24.23;;;19.37;;
21192;SDS011;10754;51.106;7.164;2023-02-12T01:47:37;23.93;;;20.93;;
21192;SDS011;10754;51.106;7.164;2023-02-12T01:50:05;24.30;;;20.57;;
21192;SDS011;10754;51.106;7.164;2023-02-12T01:52:33;25.13;;;21.13;;
21192;SDS011;10754;51.106;7.164;2023-02-12T01:55:03;21.17;;;18.33;;
21192;SDS011;10754;51.106;7.164;2023-02-12T01:57:32;18.97;;;16.77;;
21192;SDS011;10754;51.106;7.164;2023-02-12T02:00:03;19.97;;;17.10;;
21192;SDS011;10754;51.106;7.164;2023-02-12T02:02:30;22.57;;;18.67;;
21192;SDS011;10754;51.106;7.164;2023-02-12T02:04:56;23.47;;;20.83;;
21192;SDS011;10754;51.106;7.164;2023-02-12T02:07:25;25.70;;;21.30;;
21192;SDS011;10754;51.106;7.164;2023-02-12T02:09:51;25.37;;;21.80;;
21192;SDS011;10754;51.106;7.164;2023-02-12T02:12:17;23.80;;;19.97;;
21192;SDS011;10754;51.106;7.164;2023-02-12T02:15:01;21.90;;;19.20;;
21192;SDS011;10754;51.106;7.164;2023-02-12T02:25:27;23.70;;;20.97;;
21192;SDS011;10754;51.106;7.164;2023-02-12T02:31:03;22.30;;;19.77;;
21192;SDS011;10754;51.106;7.164;2023-02-12T02:33:40;23.10;;;18.80;;
21192;SDS011;10754;51.106;7.164;2023-02-12T02:36:32;19.93;;;17.67;;
21192;SDS011;10754;51.106;7.164;2023-02-12T02:41:54;25.30;;;21.40;;
21192;SDS011;10754;51.106;7.164;2023-02-12T02:44:35;26.33;;;23.40;;
21192;SDS011;10754;51.106;7.164;2023-02-12T02:47:06;25.13;;;19.87;;
21192;SDS011;10754;51.106;7.164;2023-02-12T02:49:50;23.23;;;18.20;;
21192;SDS011;10754;51.106;7.164;2023-02-12T02:52:21;21.87;;;18.20;;
21192;SDS011;10754;51.106;7.164;2023-02-12T02:55:07;20.77;;;18.50;;
21192;SDS011;10754;51.106;7.164;2023-02-12T02:57:36;23.10;;;18.60;;
21192;SDS011;10754;51.106;7.164;2023-02-12T03:00:08;21.20;;;19.00;;
21192;SDS011;10754;51.106;7.164;2023-02-12T03:02:37;23.00;;;18.87;;
21192;SDS011;10754;51.106;7.164;2023-02-12T03:05:07;21.70;;;18.17;;
21192;SDS011;10754;51.106;7.164;2023-02-12T03:10:49;24.47;;;20.20;;
21192;SDS011;10754;51.106;7.164;2023-02-12T03:13:32;25.13;;;20.63;;
21192;SDS011;10754;51.106;7.164;2023-02-12T03:18:53;23.60;;;19.73;;
21192;SDS011;10754;51.106;7.164;2023-02-12T03:21:25;23.53;;;20.03;;
21192;SDS011;10754;51.106;7.164;2023-02-12T03:24:14;22.80;;;19.03;;
21192;SDS011;10754;51.106;7.164;2023-02-12T03:26:46;22.07;;;18.43;;
21192;SDS011;10754;51.106;7.164;2023-02-12T03:29:16;23.43;;;20.23;;
21192;SDS011;10754;51.106;7.164;2023-02-12T03:37:02;24.27;;;19.97;;
21192;SDS011;10754;51.106;7.164;2023-02-12T03:39:34;23.27;;;18.70;;
21192;SDS011;10754;51.106;7.164;2023-02-12T03:42:15;25.97;;;21.10;;
21192;SDS011;10754;51.106;7.164;2023-02-12T03:45:18;25.67;;;21.47;;
21192;SDS011;10754;51.106;7.164;2023-02-12T03:50:41;22.77;;;19.30;;
21192;SDS011;10754;51.106;7.164;2023-02-12T03:53:08;22.50;;;19.80;;
21192;SDS011;10754;51.106;7.164;2023-02-12T03:55:35;23.67;;;20.47;;
21192;SDS011;10754;51.106;7.164;2023-02-12T03:58:05;26.57;;;19.90;;
21192;SDS011;10754;51.106;7.164;2023-02-12T04:00:35;22.27;;;19.60;;
21192;SDS011;10754;51.106;7.164;2023-02-12T04:03:03;21.30;;;17.63;;
21192;SDS011;10754;51.106;7.164;2023-02-12T04:05:29;21.37;;;18.37;;
21192;SDS011;10754;51.106;7.164;2023-02-12T04:07:55;19.77;;;16.30;;
21192;SDS011;10754;51.106;7.164;2023-02-12T04:10:26;25.53;;;18.90;;
21192;SDS011;10754;51.106;7.164;2023-02-12T04:15:49;23.33;;;19.47;;
21192;SDS011;10754;51.106;7.164;2023-02-12T04:18:38;22.53;;;19.20;;
21192;SDS011;10754;51.106;7.164;2023-02-12T04:24:26;22.83;;;18.77;;
21192;SDS011;10754;51.106;7.164;2023-02-12T04:27:08;21.60;;;18.93;;
21192;SDS011;10754;51.106;7.164;2023-02-12T04:32:40;25.97;;;21.60;;
21192;SDS011;10754;51.106;7.164;2023-02-12T04:35:16;24.97;;;18.87;;
21192;SDS011;10754;51.106;7.164;2023-02-12T04:40:18;22.67;;;19.07;;
21192;SDS011;10754;51.106;7.164;2023-02-12T04:42:49;24.70;;;20.73;;
21192;SDS011;10754;51.106;7.164;2023-02-12T04:45:19;25.00;;;19.13;;
21192;SDS011;10754;51.106;7.164;2023-02-12T04:47:48;20.23;;;18.07;;
21192;SDS011;10754;51.106;7.164;2023-02-12T04:50:13;22.37;;;18.93;;
21192;SDS011;10754;51.106;7.164;2023-02-12T04:52:39;22.67;;;18.73;;
21192;SDS011;10754;51.106;7.164;2023-02-12T04:55:04;21.17;;;18.70;;
21192;SDS011;10754;51.106;7.164;2023-02-12T04:57:30;23.37;;;20.23;;
21192;SDS011;10754;51.106;7.164;2023-02-12T04:59:55;25.57;;;20.90;;
21192;SDS011;10754;51.106;7.164;2023-02-12T05:02:21;22.77;;;20.23;;
21192;SDS011;10754;51.106;7.164;2023-02-12T05:04:47;24.10;;;21.43;;
21192;SDS011;10754;51.106;7.164;2023-02-12T05:07:14;24.63;;;20.83;;
21192;SDS011;10754;51.106;7.164;2023-02-12T05:09:39;23.70;;;21.10;;
21192;SDS011;10754;51.106;7.164;2023-02-12T05:12:05;25.00;;;20.43;;
21192;SDS011;10754;51.106;7.164;2023-02-12T05:14:30;24.07;;;20.77;;
21192;SDS011;10754;51.106;7.164;2023-02-12T05:16:56;24.03;;;20.97;;
21192;SDS011;10754;51.106;7.164;2023-02-12T05:19:21;28.83;;;23.60;;
21192;SDS011;10754;51.106;7.164;2023-02-12T05:21:48;20.50;;;18.30;;
21192;SDS011;10754;51.106;7.164;2023-02-12T05:24:15;21.07;;;17.73;;
21192;SDS011;10754;51.106;7.164;2023-02-12T05:26:41;23.03;;;19.17;;
21192;SDS011;10754;51.106;7.164;2023-02-12T05:29:06;19.50;;;17.40;;
21192;SDS011;10754;51.106;7.164;2023-02-12T05:31:32;23.13;;;19.60;;
21192;SDS011;10754;51.106;7.164;2023-02-12T05:33:58;23.20;;;19.37;;
21192;SDS011;10754;51.106;7.164;2023-02-12T05:36:23;20.60;;;18.27;;
21192;SDS011;10754;51.106;7.164;2023-02-12T05:38:50;21.60;;;17.77;;
21192;SDS011;10754;51.106;7.164;2023-02-12T05:41:18;21.63;;;18.87;;
21192;SDS011;10754;51.106;7.164;2023-02-12T05:43:46;22.13;;;19.10;;
21192;SDS011;10754;51.106;7.164;2023-02-12T05:46:12;20.80;;;17.80;;
21192;SDS011;10754;51.106;7.164;2023-02-12T05:48:38;23.23;;;19.50;;
21192;SDS011;10754;51.106;7.164;2023-02-12T05:51:08;25.03;;;21.53;;
21192;SDS011;10754;51.106;7.164;2023-02-12T05:53:34;23.50;;;18.80;;
21192;SDS011;10754;51.106;7.164;2023-02-12T05:56:06;22.03;;;17.80;;
21192;SDS011;10754;51.106;7.164;2023-02-12T05:58:31;22.67;;;18.40;;
21192;SDS011;10754;51.106;7.164;2023-02-12T06:00:56;22.97;;;19.27;;
21192;SDS011;10754;51.106;7.164;2023-02-12T06:03:22;26.77;;;21.27;;
21192;SDS011;10754;51.106;7.164;2023-02-12T06:05:51;22.87;;;18.40;;
21192;SDS011;10754;51.106;7.164;2023-02-12T06:08:16;18.73;;;16.13;;
21192;SDS011;10754;51.106;7.164;2023-02-12T06:10:42;21.27;;;17.57;;
21192;SDS011;10754;51.106;7.164;2023-02-12T06:13:07;20.90;;;18.57;;
21192;SDS011;10754;51.106;7.164;2023-02-12T06:15:36;22.87;;;18.80;;
21192;SDS011;10754;51.106;7.164;2023-02-12T06:18:02;24.67;;;20.73;;
21192;SDS011;10754;51.106;7.164;2023-02-12T06:20:27;21.87;;;18.87;;
21192;SDS011;10754;51.106;7.164;2023-02-12T06:22:53;21.27;;;18.17;;
21192;SDS011;10754;51.106;7.164;2023-02-12T06:25:19;22.47;;;19.13;;
21192;SDS011;10754;51.106;7.164;2023-02-12T06:27:44;23.73;;;19.53;;
21192;SDS011;10754;51.106;7.164;2023-02-12T06:30:10;23.10;;;19.67;;
21192;SDS011;10754;51.106;7.164;2023-02-12T06:32:36;22.67;;;19.20;;
21192;SDS011;10754;51.106;7.164;2023-02-12T06:35:01;21.53;;;19.23;;
21192;SDS011;10754;51.106;7.164;2023-02-12T06:37:27;23.00;;;20.33;;
21192;SDS011;10754;51.106;7.164;2023-02-12T06:39:53;25.07;;;21.67;;
21192;SDS011;10754;51.106;7.164;2023-02-12T06:42:18;21.90;;;18.77;;
21192;SDS011;10754;51.106;7.164;2023-02-12T06:44:44;20.00;;;17.00;;
21192;SDS011;10754;51.106;7.164;2023-02-12T06:47:10;22.30;;;18.50;;
21192;SDS011;10754;51.106;7.164;2023-02-12T06:49:36;23.87;;;20.70;;
21192;SDS011;10754;51.106;7.164;2023-02-12T06:52:01;25.00;;;20.13;;
21192;SDS011;10754;51.106;7.164;2023-02-12T06:54:27;23.13;;;19.07;;
21192;SDS011;10754;51.106;7.164;2023-02-12T06:56:52;24.67;;;20.77;;
21192;SDS011;10754;51.106;7.164;2023-02-12T06:59:18;25.87;;;21.47;;
21192;SDS011;10754;51.106;7.164;2023-02-12T07:01:43;25.07;;;20.53;;
21192;SDS011;10754;51.106;7.164;2023-02-12T07:04:09;23.23;;;20.03;;
21192;SDS011;10754;51.106;7.164;2023-02-12T07:06:35;24.67;;;21.10;;
21192;SDS011;10754;51.106;7.164;2023-02-12T07:09:01;23.17;;;20.50;;
21192;SDS011;10754;51.106;7.164;2023-02-12T07:11:31;20.20;;;17.90;;
21192;SDS011;10754;51.106;7.164;2023-02-12T07:13:58;22.43;;;18.07;;
21192;SDS011;10754;51.106;7.164;2023-02-12T07:16:24;20.50;;;18.03;;
21192;SDS011;10754;51.106;7.164;2023-02-12T07:18:50;20.80;;;18.53;;
21192;SDS011;10754;51.106;7.164;2023-02-12T07:21:16;21.77;;;18.73;;
21192;SDS011;10754;51.106;7.164;2023-02-12T07:23:49;23.90;;;19.90;;
21192;SDS011;10754;51.106;7.164;2023-02-12T07:26:16;21.47;;;18.83;;
21192;SDS011;10754;51.106;7.164;2023-02-12T07:28:42;19.50;;;17.40;;
21192;SDS011;10754;51.106;7.164;2023-02-12T07:31:18;22.50;;;18.53;;
21192;SDS011;10754;51.106;7.164;2023-02-12T07:33:45;25.00;;;20.57;;
21192;SDS011;10754;51.106;7.164;2023-02-12T07:36:12;19.03;;;16.20;;
21192;SDS011;10754;51.106;7.164;2023-02-12T07:38:42;20.10;;;17.40;;
21192;SDS011;10754;51.106;7.164;2023-02-12T07:41:15;21.53;;;19.00;;
21192;SDS011;10754;51.106;7.164;2023-02-12T07:43:43;22.97;;;19.37;;
21192;SDS011;10754;51.106;7.164;2023-02-12T07:46:14;23.87;;;20.73;;
21192;SDS011;10754;51.106;7.164;2023-02-12T07:48:45;22.33;;;19.33;;
21192;SDS011;10754;51.106;7.164;2023-02-12T07:51:14;19.37;;;16.73;;
21192;SDS011;10754;51.106;7.164;2023-02-12T07:53:43;20.07;;;17.57;;
21192;SDS011;10754;51.106;7.164;2023-02-12T07:58:39;21.53;;;18.47;;
21192;SDS011;10754;51.106;7.164;2023-02-12T08:01:10;23.40;;;19.50;;
21192;SDS011;10754;51.106;7.164;2023-02-12T08:03:40;23.10;;;20.37;;
21192;SDS011;10754;51.106;7.164;2023-02-12T08:06:07;26.13;;;21.63;;
21192;SDS011;10754;51.106;7.164;2023-02-12T08:08:33;23.57;;;20.37;;
21192;SDS011;10754;51.106;7.164;2023-02-12T08:10:59;23.27;;;19.73;;
21192;SDS011;10754;51.106;7.164;2023-02-12T08:13:24;25.20;;;21.33;;
21192;SDS011;10754;51.106;7.164;2023-02-12T08:15:58;24.10;;;21.50;;
21192;SDS011;10754;51.106;7.164;2023-02-12T08:18:24;21.53;;;18.00;;
21192;SDS011;10754;51.106;7.164;2023-02-12T08:20:49;22.63;;;19.07;;
21192;SDS011;10754;51.106;7.164;2023-02-12T08:23:15;23.17;;;20.00;;
21192;SDS011;10754;51.106;7.164;2023-02-12T08:25:40;25.67;;;22.33;;
21192;SDS011;10754;51.106;7.164;2023-02-12T08:28:05;28.23;;;25.03;;
21192;SDS011;10754;51.106;7.164;2023-02-12T08:30:31;26.83;;;21.40;;
21192;SDS011;10754;51.106;7.164;2023-02-12T08:32:56;24.70;;;21.20;;
21192;SDS011;10754;51.106;7.164;2023-02-12T08:35:22;24.13;;;20.40;;
21192;SDS011;10754;51.106;7.164;2023-02-12T08:37:47;22.93;;;19.73;;
21192;SDS011;10754;51.106;7.164;2023-02-12T08:40:13;24.97;;;21.47;;
21192;SDS011;10754;51.106;7.164;2023-02-12T08:42:38;23.47;;;20.77;;
21192;SDS011;10754;51.106;7.164;2023-02-12T08:45:04;26.17;;;22.43;;
21192;SDS011;10754;51.106;7.164;2023-02-12T08:47:30;29.90;;;25.87;;
21192;SDS011;10754;51.106;7.164;2023-02-12T08:49:55;31.20;;;26.87;;
21192;SDS011;10754;51.106;7.164;2023-02-12T08:52:21;33.10;;;27.10;;
21192;SDS011;10754;51.106;7.164;2023-02-12T08:54:46;29.50;;;26.30;;
21192;SDS011;10754;51.106;7.164;2023-02-12T08:57:12;29.67;;;26.17;;
21192;SDS011;10754;51.106;7.164;2023-02-12T08:59:37;29.87;;;26.10;;
21192;SDS011;10754;51.106;7.164;2023-02-12T09:02:03;30.43;;;26.63;;
21192;SDS011;10754;51.106;7.164;2023-02-12T09:04:32;31.10;;;26.83;;
21192;SDS011;10754;51.106;7.164;2023-02-12T09:07:00;30.27;;;26.83;;
21192;SDS011;10754;51.106;7.164;2023-02-12T09:09:25;28.33;;;24.83;;
21192;SDS011;10754;51.106;7.164;2023-02-12T09:11:51;31.47;;;27.00;;
21192;SDS011;10754;51.106;7.164;2023-02-12T09:14:17;29.77;;;26.47;;
21192;SDS011;10754;51.106;7.164;2023-02-12T09:16:47;30.70;;;27.33;;
21192;SDS011;10754;51.106;7.164;2023-02-12T09:19:13;32.70;;;26.53;;
21192;SDS011;10754;51.106;7.164;2023-02-12T09:21:39;30.70;;;26.43;;
21192;SDS011;10754;51.106;7.164;2023-02-12T09:24:05;27.70;;;23.47;;
21192;SDS011;10754;51.106;7.164;2023-02-12T09:26:32;26.93;;;23.97;;
21192;SDS011;10754;51.106;7.164;2023-02-12T09:28:57;28.60;;;24.90;;
21192;SDS011;10754;51.106;7.164;2023-02-12T09:31:26;27.77;;;24.50;;
21192;SDS011;10754;51.106;7.164;2023-02-12T09:33:54;29.57;;;25.03;;
21192;SDS011;10754;51.106;7.164;2023-02-12T09:36:22;30.13;;;26.57;;
21192;SDS011;10754;51.106;7.164;2023-02-12T09:38:48;29.23;;;24.83;;
21192;SDS011;10754;51.106;7.164;2023-02-12T09:52:29;25.53;;;22.73;;
21192;SDS011;10754;51.106;7.164;2023-02-12T09:54:55;24.57;;;21.67;;
21192;SDS011;10754;51.106;7.164;2023-02-12T09:57:25;24.97;;;21.67;;
21192;SDS011;10754;51.106;7.164;2023-02-12T09:59:56;21.23;;;18.93;;
21192;SDS011;10754;51.106;7.164;2023-02-12T10:02:24;22.17;;;19.77;;
21192;SDS011;10754;51.106;7.164;2023-02-12T10:04:50;22.50;;;19.20;;
21192;SDS011;10754;51.106;7.164;2023-02-12T10:07:28;25.57;;;19.60;;
21192;SDS011;10754;51.106;7.164;2023-02-12T10:17:58;20.87;;;18.50;;
21192;SDS011;10754;51.106;7.164;2023-02-12T10:20:45;20.50;;;18.30;;
21192;SDS011;10754;51.106;7.164;2023-02-12T10:26:28;18.10;;;16.07;;
21192;SDS011;10754;51.106;7.164;2023-02-12T10:28:57;17.37;;;15.47;;
21192;SDS011;10754;51.106;7.164;2023-02-12T10:31:40;16.83;;;14.83;;
21192;SDS011;10754;51.106;7.164;2023-02-12T10:34:51;18.40;;;15.47;;
21192;SDS011;10754;51.106;7.164;2023-02-12T10:39:41;15.77;;;14.07;;
21192;SDS011;10754;51.106;7.164;2023-02-12T10:42:16;15.93;;;14.07;;
21192;SDS011;10754;51.106;7.164;2023-02-12T10:44:45;17.47;;;14.03;;
21192;SDS011;10754;51.106;7.164;2023-02-12T10:47:16;15.53;;;13.70;;
21192;SDS011;10754;51.106;7.164;2023-02-12T10:49:44;15.73;;;14.03;;
21192;SDS011;10754;51.106;7.164;2023-02-12T10:52:30;14.07;;;12.07;;
21192;SDS011;10754;51.106;7.164;2023-02-12T10:55:27;15.27;;;11.87;;
21192;SDS011;10754;51.106;7.164;2023-02-12T10:57:55;14.57;;;13.07;;
21192;SDS011;10754;51.106;7.164;2023-02-12T11:00:23;15.00;;;13.47;;
21192;SDS011;10754;51.106;7.164;2023-02-12T11:03:16;15.67;;;13.17;;
21192;SDS011;10754;51.106;7.164;2023-02-12T11:05:45;15.97;;;14.17;;
21192;SDS011;10754;51.106;7.164;2023-02-12T11:11:01;15.03;;;13.43;;
21192;SDS011;10754;51.106;7.164;2023-02-12T11:13:30;14.60;;;12.87;;
21192;SDS011;10754;51.106;7.164;2023-02-12T11:15:56;14.53;;;13.03;;
21192;SDS011;10754;51.106;7.164;2023-02-12T11:20:57;16.23;;;13.77;;
21192;SDS011;10754;51.106;7.164;2023-02-12T11:23:30;16.63;;;14.43;;
21192;SDS011;10754;51.106;7.164;2023-02-12T11:25:59;15.50;;;13.73;;
21192;SDS011;10754;51.106;7.164;2023-02-12T11:31:26;14.13;;;12.63;;
21192;SDS011;10754;51.106;7.164;2023-02-12T11:34:07;16.70;;;14.20;;
21192;SDS011;10754;51.106;7.164;2023-02-12T11:36:48;17.10;;;13.03;;
21192;SDS011;10754;51.106;7.164;2023-02-12T11:39:20;18.40;;;14.07;;
21192;SDS011;10754;51.106;7.164;2023-02-12T11:41:57;15.33;;;13.37;;
21192;SDS011;10754;51.106;7.164;2023-02-12T11:44:33;15.43;;;13.70;;
21192;SDS011;10754;51.106;7.164;2023-02-12T11:47:08;15.83;;;13.53;;
21192;SDS011;10754;51.106;7.164;2023-02-12T11:49:42;16.13;;;13.20;;
21192;SDS011;10754;51.106;7.164;2023-02-12T11:52:23;16.70;;;13.35;;
21192;SDS011;10754;51.106;7.164;2023-02-12T11:54:54;15.27;;;13.07;;
21192;SDS011;10754;51.106;7.164;2023-02-12T11:57:35;15.30;;;13.60;;
21192;SDS011;10754;51.106;7.164;2023-02-12T12:00:03;15.80;;;13.60;;
21192;SDS011;10754;51.106;7.164;2023-02-12T12:02:36;17.63;;;14.87;;
21192;SDS011;10754;51.106;7.164;2023-02-12T12:05:09;15.52;;;13.40;;
21192;SDS011;10754;51.106;7.164;2023-02-12T12:07:40;15.90;;;13.73;;
21192;SDS011;10754;51.106;7.164;2023-02-12T12:10:22;16.30;;;13.63;;
21192;SDS011;10754;51.106;7.164;2023-02-12T12:12:56;17.58;;;14.65;;
21192;SDS011;10754;51.106;7.164;2023-02-12T12:15:31;16.27;;;14.03;;
21192;SDS011;10754;51.106;7.164;2023-02-12T12:18:28;15.87;;;14.27;;
21192;SDS011;10754;51.106;7.164;2023-02-12T12:21:38;16.47;;;14.77;;
21192;SDS011;10754;51.106;7.164;2023-02-12T12:24:10;15.47;;;13.80;;
21192;SDS011;10754;51.106;7.164;2023-02-12T12:26:46;14.65;;;13.13;;
21192;SDS011;10754;51.106;7.164;2023-02-12T12:29:32;15.93;;;14.20;;
21192;SDS011;10754;51.106;7.164;2023-02-12T12:32:10;15.85;;;14.18;;
21192;SDS011;10754;51.106;7.164;2023-02-12T12:34:40;15.55;;;13.65;;
21192;SDS011;10754;51.106;7.164;2023-02-12T12:45:25;15.70;;;14.13;;
21192;SDS011;10754;51.106;7.164;2023-02-12T12:50:51;17.70;;;15.33;;
21192;SDS011;10754;51.106;7.164;2023-02-12T12:59:16;16.77;;;15.05;;
21192;SDS011;10754;51.106;7.164;2023-02-12T13:01:57;15.80;;;14.10;;
21192;SDS011;10754;51.106;7.164;2023-02-12T13:07:58;16.93;;;15.13;;
21192;SDS011;10754;51.106;7.164;2023-02-12T13:10:59;16.03;;;14.27;;
21192;SDS011;10754;51.106;7.164;2023-02-12T13:16:04;16.87;;;14.57;;
21192;SDS011;10754;51.106;7.164;2023-02-12T13:18:46;14.97;;;13.47;;
21192;SDS011;10754;51.106;7.164;2023-02-12T13:21:33;15.70;;;14.10;;
21192;SDS011;10754;51.106;7.164;2023-02-12T13:27:11;15.63;;;13.93;;
21192;SDS011;10754;51.106;7.164;2023-02-12T13:32:12;16.53;;;14.63;;
21192;SDS011;10754;51.106;7.164;2023-02-12T13:34:48;16.52;;;14.85;;
21192;SDS011;10754;51.106;7.164;2023-02-12T13:37:17;16.67;;;14.87;;
21192;SDS011;10754;51.106;7.164;2023-02-12T13:40:03;16.37;;;14.67;;
21192;SDS011;10754;51.106;7.164;2023-02-12T13:45:24;17.20;;;15.33;;
21192;SDS011;10754;51.106;7.164;2023-02-12T13:48:00;15.87;;;14.10;;
21192;SDS011;10754;51.106;7.164;2023-02-12T13:56:40;16.93;;;14.57;;
21192;SDS011;10754;51.106;7.164;2023-02-12T14:01:57;16.75;;;15.05;;
21192;SDS011;10754;51.106;7.164;2023-02-12T14:04:31;16.48;;;14.77;;
21192;SDS011;10754;51.106;7.164;2023-02-12T14:09:28;15.43;;;13.82;;
21192;SDS011;10754;51.106;7.164;2023-02-12T14:11:58;17.27;;;14.50;;
21192;SDS011;10754;51.106;7.164;2023-02-12T14:14:31;16.73;;;14.00;;
21192;SDS011;10754;51.106;7.164;2023-02-12T14:17:38;16.20;;;14.60;;
21192;SDS011;10754;51.106;7.164;2023-02-12T14:27:52;13.68;;;12.18;;
21192;SDS011;10754;51.106;7.164;2023-02-12T14:37:51;13.40;;;11.75;;
21192;SDS011;10754;51.106;7.164;2023-02-12T14:43:01;10.23;;;8.93;;
21192;SDS011;10754;51.106;7.164;2023-02-12T14:45:30;10.40;;;9.20;;
21192;SDS011;10754;51.106;7.164;2023-02-12T14:48:00;11.02;;;9.73;;
21192;SDS011;10754;51.106;7.164;2023-02-12T14:50:29;10.82;;;8.85;;
21192;SDS011;10754;51.106;7.164;2023-02-12T14:53:06;9.20;;;8.27;;
21192;SDS011;10754;51.106;7.164;2023-02-12T14:55:56;9.23;;;8.27;;
21192;SDS011;10754;51.106;7.164;2023-02-12T14:58:24;10.55;;;9.48;;
21192;SDS011;10754;51.106;7.164;2023-02-12T15:00:53;9.17;;;8.07;;
21192;SDS011;10754;51.106;7.164;2023-02-12T15:03:28;8.65;;;7.22;;
21192;SDS011;10754;51.106;7.164;2023-02-12T15:08:35;6.25;;;5.50;;
21192;SDS011;10754;51.106;7.164;2023-02-12T15:11:53;5.63;;;5.13;;
21192;SDS011;10754;51.106;7.164;2023-02-12T15:16:48;4.55;;;4.15;;
21192;SDS011;10754;51.106;7.164;2023-02-12T15:22:11;4.80;;;4.30;;
21192;SDS011;10754;51.106;7.164;2023-02-12T15:24:43;4.23;;;3.87;;
21192;SDS011;10754;51.106;7.164;2023-02-12T15:27:10;4.82;;;4.32;;
21192;SDS011;10754;51.106;7.164;2023-02-12T15:29:40;4.80;;;4.30;;
21192;SDS011;10754;51.106;7.164;2023-02-12T15:32:13;5.05;;;4.60;;
21192;SDS011;10754;51.106;7.164;2023-02-12T15:34:43;5.22;;;4.63;;
21192;SDS011;10754;51.106;7.164;2023-02-12T15:37:20;6.45;;;5.00;;
21192;SDS011;10754;51.106;7.164;2023-02-12T15:39:49;5.90;;;5.30;;
21192;SDS011;10754;51.106;7.164;2023-02-12T15:42:23;5.63;;;4.82;;
21192;SDS011;10754;51.106;7.164;2023-02-12T15:45:23;5.53;;;4.60;;
21192;SDS011;10754;51.106;7.164;2023-02-12T15:50:50;6.18;;;5.57;;
21192;SDS011;10754;51.106;7.164;2023-02-12T15:53:38;7.60;;;4.80;;
21192;SDS011;10754;51.106;7.164;2023-02-12T15:56:04;5.60;;;4.90;;
21192;SDS011;10754;51.106;7.164;2023-02-12T16:01:16;5.60;;;5.10;;
21192;SDS011;10754;51.106;7.164;2023-02-12T16:03:43;5.43;;;4.93;;
21192;SDS011;10754;51.106;7.164;2023-02-12T16:06:15;6.07;;;5.47;;
21192;SDS011;10754;51.106;7.164;2023-02-12T16:08:43;5.20;;;4.70;;
21192;SDS011;10754;51.106;7.164;2023-02-12T16:11:30;6.20;;;5.60;;
21192;SDS011;10754;51.106;7.164;2023-02-12T16:14:04;5.97;;;5.33;;
21192;SDS011;10754;51.106;7.164;2023-02-12T16:16:43;5.60;;;5.10;;
21192;SDS011;10754;51.106;7.164;2023-02-12T16:27:03;5.97;;;5.37;;
21192;SDS011;10754;51.106;7.164;2023-02-12T16:29:48;5.43;;;4.93;;
21192;SDS011;10754;51.106;7.164;2023-02-12T16:32:27;6.30;;;5.70;;
21192;SDS011;10754;51.106;7.164;2023-02-12T16:40:11;6.40;;;5.80;;
21192;SDS011;10754;51.106;7.164;2023-02-12T16:47:52;5.30;;;4.80;;
21192;SDS011;10754;51.106;7.164;2023-02-12T16:50:20;6.07;;;5.47;;
21192;SDS011;10754;51.106;7.164;2023-02-12T16:52:49;5.73;;;5.13;;
21192;SDS011;10754;51.106;7.164;2023-02-12T16:55:27;5.63;;;4.80;;
21192;SDS011;10754;51.106;7.164;2023-02-12T16:57:53;5.18;;;4.68;;
21192;SDS011;10754;51.106;7.164;2023-02-12T17:00:18;5.90;;;5.40;;
21192;SDS011;10754;51.106;7.164;2023-02-12T17:02:44;5.47;;;4.90;;
21192;SDS011;10754;51.106;7.164;2023-02-12T17:05:11;5.40;;;4.90;;
21192;SDS011;10754;51.106;7.164;2023-02-12T17:07:40;5.13;;;4.67;;
21192;SDS011;10754;51.106;7.164;2023-02-12T17:10:10;4.27;;;3.87;;
21192;SDS011;10754;51.106;7.164;2023-02-12T17:12:46;5.27;;;4.10;;
21192;SDS011;10754;51.106;7.164;2023-02-12T17:18:07;4.70;;;4.20;;
21192;SDS011;10754;51.106;7.164;2023-02-12T17:20:35;4.90;;;4.50;;
21192;SDS011;10754;51.106;7.164;2023-02-12T17:23:01;5.20;;;4.70;;
21192;SDS011;10754;51.106;7.164;2023-02-12T17:25:28;3.90;;;3.60;;
21192;SDS011;10754;51.106;7.164;2023-02-12T17:27:54;4.20;;;3.88;;
21192;SDS011;10754;51.106;7.164;2023-02-12T17:30:20;4.17;;;3.60;;
21192;SDS011;10754;51.106;7.164;2023-02-12T17:32:46;3.17;;;2.87;;
21192;SDS011;10754;51.106;7.164;2023-02-12T17:35:11;3.30;;;3.00;;
21192;SDS011;10754;51.106;7.164;2023-02-12T17:37:37;5.80;;;4.20;;